sensor_id;sensor_type;location;lat;lon;timestamp;pressure;altitude;pressure_sealevel;temperature;humidity
55755;BME280;41674;52.290;-1.474;2023-04-04T00:00:46;102382.32;;;4.20;60.51
55755;BME280;41674;52.290;-1.474;2023-04-04T00:03:15;102381.87;;;3.98;60.45
55755;BME280;41674;52.290;-1.474;2023-04-04T00:05:45;102384.87;;;4.38;60.74
55755;BME280;41674;52.290;-1.474;2023-04-04T00:08:15;102386.15;;;3.70;61.77
55755;BME280;41674;52.290;-1.474;2023-04-04T00:10:45;102388.50;;;3.71;62.03
55755;BME280;41674;52.290;-1.474;2023-04-04T00:13:14;102388.25;;;3.55;63.57
55755;BME280;41674;52.290;-1.474;2023-04-04T00:15:44;102386.73;;;3.01;64.23
55755;BME280;41674;52.290;-1.474;2023-04-04T00:18:13;102383.50;;;3.33;62.84
55755;BME280;41674;52.290;-1.474;2023-04-04T00:20:43;102375.95;;;2.99;62.59
55755;BME280;41674;52.290;-1.474;2023-04-04T00:23:13;102376.45;;;3.57;61.71
55755;BME280;41674;52.290;-1.474;2023-04-04T00:25:47;102373.55;;;3.46;62.16
55755;BME280;41674;52.290;-1.474;2023-04-04T00:28:12;102371.79;;;2.66;64.65
55755;BME280;41674;52.290;-1.474;2023-04-04T00:30:42;102371.94;;;2.68;63.04
55755;BME280;41674;52.290;-1.474;2023-04-04T00:33:12;102371.75;;;3.56;61.36
55755;BME280;41674;52.290;-1.474;2023-04-04T00:35:41;102369.48;;;2.91;64.45
55755;BME280;41674;52.290;-1.474;2023-04-04T00:38:11;102365.12;;;3.35;63.36
55755;BME280;41674;52.290;-1.474;2023-04-04T00:40:42;102365.18;;;2.11;65.68
55755;BME280;41674;52.290;-1.474;2023-04-04T00:43:10;102364.69;;;1.85;68.22
55755;BME280;41674;52.290;-1.474;2023-04-04T00:45:40;102359.53;;;2.68;66.51
55755;BME280;41674;52.290;-1.474;2023-04-04T00:48:10;102367.27;;;2.46;65.44
55755;BME280;41674;52.290;-1.474;2023-04-04T00:50:39;102371.04;;;2.74;64.43
55755;BME280;41674;52.290;-1.474;2023-04-04T00:53:09;102376.17;;;1.64;68.28
55755;BME280;41674;52.290;-1.474;2023-04-04T00:55:39;102370.80;;;1.91;66.10
55755;BME280;41674;52.290;-1.474;2023-04-04T00:58:09;102370.82;;;1.89;66.79
55755;BME280;41674;52.290;-1.474;2023-04-04T01:00:38;102371.49;;;2.94;63.16
55755;BME280;41674;52.290;-1.474;2023-04-04T01:03:08;102369.89;;;1.92;65.87
55755;BME280;41674;52.290;-1.474;2023-04-04T01:05:38;102371.58;;;1.50;68.42
55755;BME280;41674;52.290;-1.474;2023-04-04T01:08:07;102366.36;;;1.72;67.79
55755;BME280;41674;52.290;-1.474;2023-04-04T01:10:37;102361.28;;;1.97;68.10
55755;BME280;41674;52.290;-1.474;2023-04-04T01:13:06;102354.67;;;2.56;66.48
55755;BME280;41674;52.290;-1.474;2023-04-04T01:15:36;102353.01;;;2.82;64.96
55755;BME280;41674;52.290;-1.474;2023-04-04T01:18:07;102356.64;;;2.18;66.06
55755;BME280;41674;52.290;-1.474;2023-04-04T01:20:41;102358.96;;;0.96;71.77
55755;BME280;41674;52.290;-1.474;2023-04-04T01:23:05;102359.72;;;0.43;73.18
55755;BME280;41674;52.290;-1.474;2023-04-04T01:25:35;102355.17;;;2.70;66.46
55755;BME280;41674;52.290;-1.474;2023-04-04T01:28:04;102350.54;;;2.84;64.37
55755;BME280;41674;52.290;-1.474;2023-04-04T01:30:35;102347.45;;;2.42;66.35
55755;BME280;41674;52.290;-1.474;2023-04-04T01:33:09;102343.88;;;3.34;61.53
55755;BME280;41674;52.290;-1.474;2023-04-04T01:35:39;102346.33;;;2.42;63.95
55755;BME280;41674;52.290;-1.474;2023-04-04T01:38:14;102354.81;;;2.19;66.76
55755;BME280;41674;52.290;-1.474;2023-04-04T01:40:34;102357.91;;;1.71;68.43
55755;BME280;41674;52.290;-1.474;2023-04-04T01:43:03;102354.22;;;1.31;69.44
55755;BME280;41674;52.290;-1.474;2023-04-04T01:45:33;102354.42;;;0.98;71.61
55755;BME280;41674;52.290;-1.474;2023-04-04T01:48:03;102359.31;;;1.69;68.01
55755;BME280;41674;52.290;-1.474;2023-04-04T01:50:32;102359.39;;;1.75;66.88
55755;BME280;41674;52.290;-1.474;2023-04-04T01:53:02;102353.82;;;2.15;66.71
55755;BME280;41674;52.290;-1.474;2023-04-04T01:55:31;102351.75;;;0.06;71.86
55755;BME280;41674;52.290;-1.474;2023-04-04T01:58:01;102342.11;;;0.19;72.48
55755;BME280;41674;52.290;-1.474;2023-04-04T02:00:31;102349.67;;;-1.07;79.03
55755;BME280;41674;52.290;-1.474;2023-04-04T02:03:01;102341.34;;;1.48;69.29
55755;BME280;41674;52.290;-1.474;2023-04-04T02:05:31;102343.00;;;0.77;72.27
55755;BME280;41674;52.290;-1.474;2023-04-04T02:08:00;102344.05;;;1.60;67.27
55755;BME280;41674;52.290;-1.474;2023-04-04T02:10:30;102341.77;;;0.79;70.44
55755;BME280;41674;52.290;-1.474;2023-04-04T02:13:00;102337.49;;;0.03;72.77
55755;BME280;41674;52.290;-1.474;2023-04-04T02:15:29;102329.88;;;2.04;66.83
55755;BME280;41674;52.290;-1.474;2023-04-04T02:17:59;102329.06;;;1.95;68.11
55755;BME280;41674;52.290;-1.474;2023-04-04T02:20:29;102327.81;;;1.62;68.71
55755;BME280;41674;52.290;-1.474;2023-04-04T02:22:59;102323.99;;;1.96;64.13
55755;BME280;41674;52.290;-1.474;2023-04-04T02:25:28;102326.27;;;1.51;66.22
55755;BME280;41674;52.290;-1.474;2023-04-04T02:27:58;102324.59;;;2.14;63.82
55755;BME280;41674;52.290;-1.474;2023-04-04T02:30:28;102319.32;;;2.39;64.05
55755;BME280;41674;52.290;-1.474;2023-04-04T02:32:58;102319.05;;;2.40;64.86
55755;BME280;41674;52.290;-1.474;2023-04-04T02:35:28;102322.44;;;1.02;69.23
55755;BME280;41674;52.290;-1.474;2023-04-04T02:37:57;102320.24;;;2.21;66.80
55755;BME280;41674;52.290;-1.474;2023-04-04T02:40:27;102315.97;;;2.21;64.73
55755;BME280;41674;52.290;-1.474;2023-04-04T02:42:57;102310.74;;;2.70;63.41
55755;BME280;41674;52.290;-1.474;2023-04-04T02:45:26;102308.56;;;2.62;64.61
55755;BME280;41674;52.290;-1.474;2023-04-04T02:47:57;102306.48;;;2.04;65.38
55755;BME280;41674;52.290;-1.474;2023-04-04T02:50:26;102308.19;;;1.32;68.64
55755;BME280;41674;52.290;-1.474;2023-04-04T02:52:59;102303.83;;;1.27;68.19
55755;BME280;41674;52.290;-1.474;2023-04-04T02:55:26;102299.36;;;1.10;68.67
55755;BME280;41674;52.290;-1.474;2023-04-04T02:57:55;102300.30;;;1.30;68.08
55755;BME280;41674;52.290;-1.474;2023-04-04T03:00:25;102297.71;;;1.23;68.09
55755;BME280;41674;52.290;-1.474;2023-04-04T03:02:56;102290.60;;;2.16;64.60
55755;BME280;41674;52.290;-1.474;2023-04-04T03:05:25;102288.60;;;1.56;67.56
55755;BME280;41674;52.290;-1.474;2023-04-04T03:07:55;102285.86;;;1.93;66.41
55755;BME280;41674;52.290;-1.474;2023-04-04T03:10:25;102284.18;;;1.77;67.26
55755;BME280;41674;52.290;-1.474;2023-04-04T03:12:54;102284.79;;;1.34;66.06
55755;BME280;41674;52.290;-1.474;2023-04-04T03:15:24;102282.91;;;0.98;66.37
55755;BME280;41674;52.290;-1.474;2023-04-04T03:17:53;102281.25;;;0.68;68.66
55755;BME280;41674;52.290;-1.474;2023-04-04T03:20:23;102278.49;;;1.06;68.16
55755;BME280;41674;52.290;-1.474;2023-04-04T03:22:53;102274.90;;;1.60;66.76
55755;BME280;41674;52.290;-1.474;2023-04-04T03:25:22;102265.37;;;1.57;65.88
55755;BME280;41674;52.290;-1.474;2023-04-04T03:27:52;102263.22;;;1.36;66.42
55755;BME280;41674;52.290;-1.474;2023-04-04T03:30:22;102265.71;;;1.38;67.59
55755;BME280;41674;52.290;-1.474;2023-04-04T03:32:52;102263.65;;;1.42;65.95
55755;BME280;41674;52.290;-1.474;2023-04-04T03:35:22;102264.57;;;0.63;67.10
55755;BME280;41674;52.290;-1.474;2023-04-04T03:37:51;102264.18;;;-0.04;69.92
55755;BME280;41674;52.290;-1.474;2023-04-04T03:40:21;102266.63;;;-0.18;72.96
55755;BME280;41674;52.290;-1.474;2023-04-04T03:42:50;102267.95;;;-0.78;74.35
55755;BME280;41674;52.290;-1.474;2023-04-04T03:45:20;102263.37;;;0.97;69.65
55755;BME280;41674;52.290;-1.474;2023-04-04T03:47:50;102262.58;;;1.44;68.11
55755;BME280;41674;52.290;-1.474;2023-04-04T03:50:19;102259.09;;;0.80;69.70
55755;BME280;41674;52.290;-1.474;2023-04-04T03:52:49;102254.55;;;0.57;70.26
55755;BME280;41674;52.290;-1.474;2023-04-04T03:55:19;102254.15;;;1.29;67.67
55755;BME280;41674;52.290;-1.474;2023-04-04T03:57:49;102254.51;;;1.23;66.98
55755;BME280;41674;52.290;-1.474;2023-04-04T04:00:18;102256.86;;;-0.79;74.07
55755;BME280;41674;52.290;-1.474;2023-04-04T04:02:48;102250.52;;;0.40;71.73
55755;BME280;41674;52.290;-1.474;2023-04-04T04:05:18;102244.95;;;1.20;68.41
55755;BME280;41674;52.290;-1.474;2023-04-04T04:07:47;102245.69;;;0.14;70.79
55755;BME280;41674;52.290;-1.474;2023-04-04T04:10:18;102247.31;;;0.25;70.00
55755;BME280;41674;52.290;-1.474;2023-04-04T04:12:47;102245.73;;;0.93;68.08
55755;BME280;41674;52.290;-1.474;2023-04-04T04:15:17;102244.69;;;0.59;67.78
55755;BME280;41674;52.290;-1.474;2023-04-04T04:17:46;102245.40;;;0.96;66.79
55755;BME280;41674;52.290;-1.474;2023-04-04T04:20:16;102245.23;;;1.31;65.96
55755;BME280;41674;52.290;-1.474;2023-04-04T04:22:46;102244.31;;;0.34;69.94
55755;BME280;41674;52.290;-1.474;2023-04-04T04:25:16;102243.12;;;0.03;70.37
55755;BME280;41674;52.290;-1.474;2023-04-04T04:27:46;102237.76;;;0.55;70.43
55755;BME280;41674;52.290;-1.474;2023-04-04T04:30:15;102236.47;;;1.00;68.32
55755;BME280;41674;52.290;-1.474;2023-04-04T04:32:48;102234.18;;;0.32;69.52
55755;BME280;41674;52.290;-1.474;2023-04-04T04:35:15;102231.93;;;1.47;66.28
55755;BME280;41674;52.290;-1.474;2023-04-04T04:37:45;102235.64;;;1.12;66.00
55755;BME280;41674;52.290;-1.474;2023-04-04T04:40:14;102233.84;;;1.14;67.29
55755;BME280;41674;52.290;-1.474;2023-04-04T04:42:44;102231.97;;;0.45;67.86
55755;BME280;41674;52.290;-1.474;2023-04-04T04:45:14;102228.73;;;0.65;69.01
55755;BME280;41674;52.290;-1.474;2023-04-04T04:47:44;102226.37;;;0.91;67.49
55755;BME280;41674;52.290;-1.474;2023-04-04T04:50:14;102227.16;;;0.88;66.32
55755;BME280;41674;52.290;-1.474;2023-04-04T04:52:44;102222.10;;;1.50;65.79
55755;BME280;41674;52.290;-1.474;2023-04-04T04:55:13;102217.94;;;1.62;65.39
55755;BME280;41674;52.290;-1.474;2023-04-04T04:57:43;102221.63;;;0.22;67.73
55755;BME280;41674;52.290;-1.474;2023-04-04T05:00:14;102220.82;;;-0.01;69.69
55755;BME280;41674;52.290;-1.474;2023-04-04T05:02:42;102220.73;;;1.33;66.68
55755;BME280;41674;52.290;-1.474;2023-04-04T05:05:12;102226.50;;;1.00;66.32
55755;BME280;41674;52.290;-1.474;2023-04-04T05:07:44;102232.99;;;0.88;66.54
55755;BME280;41674;52.290;-1.474;2023-04-04T05:10:13;102237.19;;;0.50;67.05
55755;BME280;41674;52.290;-1.474;2023-04-04T05:12:42;102248.39;;;-0.60;72.76
55755;BME280;41674;52.290;-1.474;2023-04-04T05:15:11;102260.25;;;-0.73;73.84
55755;BME280;41674;52.290;-1.474;2023-04-04T05:17:41;102263.31;;;-0.56;73.99
55755;BME280;41674;52.290;-1.474;2023-04-04T05:20:11;102260.98;;;-0.23;74.85
55755;BME280;41674;52.290;-1.474;2023-04-04T05:22:42;102255.14;;;-0.67;74.81
55755;BME280;41674;52.290;-1.474;2023-04-04T05:25:10;102252.57;;;-0.98;75.74
55755;BME280;41674;52.290;-1.474;2023-04-04T05:27:40;102246.76;;;-1.29;78.85
55755;BME280;41674;52.290;-1.474;2023-04-04T05:30:10;102236.60;;;0.08;73.30
55755;BME280;41674;52.290;-1.474;2023-04-04T05:32:39;102236.88;;;0.42;69.46
55755;BME280;41674;52.290;-1.474;2023-04-04T05:35:09;102235.81;;;0.24;69.13
55755;BME280;41674;52.290;-1.474;2023-04-04T05:37:39;102234.74;;;0.92;68.58
55755;BME280;41674;52.290;-1.474;2023-04-04T05:40:09;102234.43;;;0.44;70.46
55755;BME280;41674;52.290;-1.474;2023-04-04T05:42:37;102235.82;;;0.06;69.45
55755;BME280;41674;52.290;-1.474;2023-04-04T05:45:08;102231.52;;;0.56;71.00
55755;BME280;41674;52.290;-1.474;2023-04-04T05:47:36;102226.88;;;1.08;69.34
55755;BME280;41674;52.290;-1.474;2023-04-04T05:50:07;102225.64;;;0.41;68.71
55755;BME280;41674;52.290;-1.474;2023-04-04T05:52:36;102229.42;;;1.06;67.12
55755;BME280;41674;52.290;-1.474;2023-04-04T05:55:06;102236.18;;;0.93;66.81
55755;BME280;41674;52.290;-1.474;2023-04-04T05:57:36;102240.83;;;0.28;69.64
55755;BME280;41674;52.290;-1.474;2023-04-04T06:00:06;102242.50;;;0.29;69.86
55755;BME280;41674;52.290;-1.474;2023-04-04T06:02:35;102242.62;;;0.43;69.41
55755;BME280;41674;52.290;-1.474;2023-04-04T06:07:34;102240.79;;;0.61;67.71
55755;BME280;41674;52.290;-1.474;2023-04-04T06:10:04;102241.93;;;0.23;70.23
55755;BME280;41674;52.290;-1.474;2023-04-04T06:12:33;102245.41;;;1.08;66.59
55755;BME280;41674;52.290;-1.474;2023-04-04T06:15:03;102247.58;;;0.50;68.61
55755;BME280;41674;52.290;-1.474;2023-04-04T06:17:32;102249.29;;;0.73;68.70
55755;BME280;41674;52.290;-1.474;2023-04-04T06:20:02;102250.72;;;0.50;69.35
55755;BME280;41674;52.290;-1.474;2023-04-04T06:22:32;102249.93;;;0.97;67.90
55755;BME280;41674;52.290;-1.474;2023-04-04T06:25:01;102253.99;;;0.92;68.13
55755;BME280;41674;52.290;-1.474;2023-04-04T06:27:31;102252.95;;;0.60;68.79
55755;BME280;41674;52.290;-1.474;2023-04-04T06:30:00;102252.41;;;1.09;69.01
55755;BME280;41674;52.290;-1.474;2023-04-04T06:32:31;102252.03;;;1.06;69.31
55755;BME280;41674;52.290;-1.474;2023-04-04T06:35:01;102257.06;;;1.51;67.84
55755;BME280;41674;52.290;-1.474;2023-04-04T06:37:29;102260.65;;;0.74;70.91
55755;BME280;41674;52.290;-1.474;2023-04-04T06:39:59;102263.90;;;1.17;68.84
55755;BME280;41674;52.290;-1.474;2023-04-04T06:42:28;102265.45;;;0.74;69.90
55755;BME280;41674;52.290;-1.474;2023-04-04T06:44:58;102267.02;;;1.42;69.00
55755;BME280;41674;52.290;-1.474;2023-04-04T06:47:27;102265.02;;;1.48;70.47
55755;BME280;41674;52.290;-1.474;2023-04-04T06:49:57;102269.08;;;1.32;70.95
55755;BME280;41674;52.290;-1.474;2023-04-04T06:52:26;102273.70;;;0.55;72.58
55755;BME280;41674;52.290;-1.474;2023-04-04T06:54:56;102275.12;;;1.60;70.78
55755;BME280;41674;52.290;-1.474;2023-04-04T06:57:26;102281.77;;;1.41;71.53
55755;BME280;41674;52.290;-1.474;2023-04-04T06:59:55;102283.52;;;2.04;70.56
55755;BME280;41674;52.290;-1.474;2023-04-04T07:02:25;102282.73;;;2.27;68.44
55755;BME280;41674;52.290;-1.474;2023-04-04T07:04:56;102283.15;;;2.53;68.15
55755;BME280;41674;52.290;-1.474;2023-04-04T07:07:23;102290.47;;;2.03;69.90
55755;BME280;41674;52.290;-1.474;2023-04-04T07:09:53;102289.60;;;2.36;70.29
55755;BME280;41674;52.290;-1.474;2023-04-04T07:12:22;102281.57;;;2.66;69.72
55755;BME280;41674;52.290;-1.474;2023-04-04T07:14:52;102275.86;;;2.87;69.53
55755;BME280;41674;52.290;-1.474;2023-04-04T07:17:21;102274.61;;;2.17;71.58
55755;BME280;41674;52.290;-1.474;2023-04-04T07:19:51;102276.36;;;1.80;72.88
55755;BME280;41674;52.290;-1.474;2023-04-04T07:22:20;102273.87;;;1.78;73.99
55755;BME280;41674;52.290;-1.474;2023-04-04T07:24:49;102270.10;;;2.20;73.12
55755;BME280;41674;52.290;-1.474;2023-04-04T07:27:19;102265.65;;;2.72;73.00
55755;BME280;41674;52.290;-1.474;2023-04-04T07:29:48;102265.28;;;2.48;74.38
55755;BME280;41674;52.290;-1.474;2023-04-04T07:32:18;102261.08;;;2.34;73.00
55755;BME280;41674;52.290;-1.474;2023-04-04T07:34:47;102261.72;;;3.18;71.92
55755;BME280;41674;52.290;-1.474;2023-04-04T07:37:17;102260.34;;;3.19;71.17
55755;BME280;41674;52.290;-1.474;2023-04-04T07:39:46;102258.43;;;3.41;69.90
55755;BME280;41674;52.290;-1.474;2023-04-04T07:42:15;102249.54;;;3.58;71.86
55755;BME280;41674;52.290;-1.474;2023-04-04T07:44:45;102245.12;;;3.61;71.22
55755;BME280;41674;52.290;-1.474;2023-04-04T07:47:15;102245.71;;;3.09;72.21
55755;BME280;41674;52.290;-1.474;2023-04-04T07:49:44;102239.87;;;3.27;72.55
55755;BME280;41674;52.290;-1.474;2023-04-04T07:52:13;102239.96;;;3.62;73.53
55755;BME280;41674;52.290;-1.474;2023-04-04T07:54:43;102242.09;;;3.01;73.84
55755;BME280;41674;52.290;-1.474;2023-04-04T07:57:13;102240.04;;;2.85;72.98
55755;BME280;41674;52.290;-1.474;2023-04-04T07:59:42;102230.27;;;4.17;71.80
55755;BME280;41674;52.290;-1.474;2023-04-04T08:02:12;102233.65;;;4.30;70.10
55755;BME280;41674;52.290;-1.474;2023-04-04T08:04:41;102230.74;;;4.87;68.06
55755;BME280;41674;52.290;-1.474;2023-04-04T08:07:11;102229.10;;;4.55;69.28
55755;BME280;41674;52.290;-1.474;2023-04-04T08:09:41;102226.76;;;4.92;67.44
55755;BME280;41674;52.290;-1.474;2023-04-04T08:12:10;102225.72;;;5.41;66.64
55755;BME280;41674;52.290;-1.474;2023-04-04T08:14:39;102228.36;;;5.45;66.10
55755;BME280;41674;52.290;-1.474;2023-04-04T08:17:09;102229.67;;;5.65;66.09
55755;BME280;41674;52.290;-1.474;2023-04-04T08:19:38;102234.82;;;5.24;65.11
55755;BME280;41674;52.290;-1.474;2023-04-04T08:22:08;102231.44;;;5.48;63.25
55755;BME280;41674;52.290;-1.474;2023-04-04T08:24:38;102233.52;;;4.40;68.65
55755;BME280;41674;52.290;-1.474;2023-04-04T08:27:07;102233.95;;;4.75;65.25
55755;BME280;41674;52.290;-1.474;2023-04-04T08:29:37;102235.19;;;5.10;65.18
55755;BME280;41674;52.290;-1.474;2023-04-04T08:32:06;102236.37;;;5.35;65.66
55755;BME280;41674;52.290;-1.474;2023-04-04T08:34:36;102234.46;;;5.75;64.36
55755;BME280;41674;52.290;-1.474;2023-04-04T08:37:06;102234.53;;;5.56;62.62
55755;BME280;41674;52.290;-1.474;2023-04-04T08:39:35;102238.90;;;5.25;64.66
55755;BME280;41674;52.290;-1.474;2023-04-04T08:42:06;102234.68;;;6.23;63.89
55755;BME280;41674;52.290;-1.474;2023-04-04T08:44:36;102229.65;;;6.04;62.65
55755;BME280;41674;52.290;-1.474;2023-04-04T08:47:05;102228.51;;;5.50;60.32
55755;BME280;41674;52.290;-1.474;2023-04-04T08:49:37;102225.51;;;5.29;63.18
55755;BME280;41674;52.290;-1.474;2023-04-04T08:52:03;102226.05;;;5.60;60.90
55755;BME280;41674;52.290;-1.474;2023-04-04T08:54:33;102223.51;;;6.43;59.48
55755;BME280;41674;52.290;-1.474;2023-04-04T08:57:01;102222.22;;;5.15;61.25
55755;BME280;41674;52.290;-1.474;2023-04-04T08:59:30;102220.21;;;6.04;61.76
55755;BME280;41674;52.290;-1.474;2023-04-04T09:02:12;102219.17;;;5.89;59.92
55755;BME280;41674;52.290;-1.474;2023-04-04T09:04:29;102221.71;;;5.42;58.67
55755;BME280;41674;52.290;-1.474;2023-04-04T09:07:00;102220.80;;;5.86;58.56
55755;BME280;41674;52.290;-1.474;2023-04-04T09:09:28;102224.95;;;5.22;60.59
55755;BME280;41674;52.290;-1.474;2023-04-04T09:11:58;102221.54;;;5.90;58.77
55755;BME280;41674;52.290;-1.474;2023-04-04T09:14:29;102228.11;;;5.50;60.14
55755;BME280;41674;52.290;-1.474;2023-04-04T09:16:57;102225.34;;;6.67;59.06
55755;BME280;41674;52.290;-1.474;2023-04-04T09:19:27;102225.63;;;6.51;56.64
55755;BME280;41674;52.290;-1.474;2023-04-04T09:21:57;102228.78;;;6.69;55.69
55755;BME280;41674;52.290;-1.474;2023-04-04T09:24:38;102225.53;;;6.26;55.72
55755;BME280;41674;52.290;-1.474;2023-04-04T09:26:55;102225.07;;;6.49;56.38
55755;BME280;41674;52.290;-1.474;2023-04-04T09:29:25;102226.85;;;6.37;58.76
55755;BME280;41674;52.290;-1.474;2023-04-04T09:31:54;102223.26;;;7.10;55.23
55755;BME280;41674;52.290;-1.474;2023-04-04T09:34:24;102222.26;;;6.93;52.57
55755;BME280;41674;52.290;-1.474;2023-04-04T09:36:53;102225.13;;;7.11;55.19
55755;BME280;41674;52.290;-1.474;2023-04-04T09:39:24;102226.73;;;7.31;55.47
55755;BME280;41674;52.290;-1.474;2023-04-04T09:41:52;102226.99;;;7.63;52.98
55755;BME280;41674;52.290;-1.474;2023-04-04T09:44:23;102213.82;;;8.06;51.96
55755;BME280;41674;52.290;-1.474;2023-04-04T09:46:51;102221.13;;;7.68;55.79
55755;BME280;41674;52.290;-1.474;2023-04-04T09:49:21;102218.92;;;7.45;52.37
55755;BME280;41674;52.290;-1.474;2023-04-04T09:51:52;102220.37;;;8.69;48.21
55755;BME280;41674;52.290;-1.474;2023-04-04T09:54:21;102220.46;;;9.14;48.11
55755;BME280;41674;52.290;-1.474;2023-04-04T09:56:49;102223.42;;;7.99;48.87
55755;BME280;41674;52.290;-1.474;2023-04-04T09:59:19;102222.00;;;7.78;48.94
55755;BME280;41674;52.290;-1.474;2023-04-04T10:01:48;102214.33;;;8.26;48.99
55755;BME280;41674;52.290;-1.474;2023-04-04T10:04:17;102218.16;;;8.03;48.83
55755;BME280;41674;52.290;-1.474;2023-04-04T10:06:47;102220.79;;;7.91;50.95
55755;BME280;41674;52.290;-1.474;2023-04-04T10:09:16;102218.90;;;8.20;49.24
55755;BME280;41674;52.290;-1.474;2023-04-04T10:11:46;102222.60;;;7.43;49.71
55755;BME280;41674;52.290;-1.474;2023-04-04T10:14:15;102220.29;;;7.67;49.78
55755;BME280;41674;52.290;-1.474;2023-04-04T10:16:45;102219.41;;;7.27;50.67
55755;BME280;41674;52.290;-1.474;2023-04-04T10:19:14;102210.54;;;7.68;52.20
55755;BME280;41674;52.290;-1.474;2023-04-04T10:21:43;102206.79;;;8.48;49.46
55755;BME280;41674;52.290;-1.474;2023-04-04T10:24:13;102208.06;;;8.40;49.10
55755;BME280;41674;52.290;-1.474;2023-04-04T10:26:42;102202.84;;;8.10;48.82
55755;BME280;41674;52.290;-1.474;2023-04-04T10:31:43;102201.96;;;7.61;49.61
55755;BME280;41674;52.290;-1.474;2023-04-04T10:34:21;102200.94;;;8.10;49.00
55755;BME280;41674;52.290;-1.474;2023-04-04T10:36:44;102199.92;;;9.48;46.39
55755;BME280;41674;52.290;-1.474;2023-04-04T10:39:13;102198.35;;;8.67;48.12
55755;BME280;41674;52.290;-1.474;2023-04-04T10:41:39;102195.82;;;8.31;47.35
55755;BME280;41674;52.290;-1.474;2023-04-04T10:44:16;102200.59;;;8.85;46.15
55755;BME280;41674;52.290;-1.474;2023-04-04T10:46:40;102198.53;;;9.18;48.82
55755;BME280;41674;52.290;-1.474;2023-04-04T10:49:08;102197.53;;;9.00;44.65
55755;BME280;41674;52.290;-1.474;2023-04-04T10:51:37;102197.28;;;8.62;44.71
55755;BME280;41674;52.290;-1.474;2023-04-04T10:54:06;102195.46;;;8.57;46.29
55755;BME280;41674;52.290;-1.474;2023-04-04T10:56:35;102187.29;;;9.28;45.30
55755;BME280;41674;52.290;-1.474;2023-04-04T10:59:12;102181.77;;;10.03;42.71
55755;BME280;41674;52.290;-1.474;2023-04-04T11:01:48;102178.37;;;10.40;42.09
55755;BME280;41674;52.290;-1.474;2023-04-04T11:09:06;102173.26;;;10.08;41.03
55755;BME280;41674;52.290;-1.474;2023-04-04T11:14:04;102178.80;;;10.85;38.98
55755;BME280;41674;52.290;-1.474;2023-04-04T11:19:01;102181.12;;;10.49;39.57
55755;BME280;41674;52.290;-1.474;2023-04-04T11:21:31;102179.57;;;10.61;41.15
55755;BME280;41674;52.290;-1.474;2023-04-04T11:24:12;102182.71;;;10.27;42.82
55755;BME280;41674;52.290;-1.474;2023-04-04T11:26:34;102177.88;;;10.26;41.55
55755;BME280;41674;52.290;-1.474;2023-04-04T11:28:59;102179.97;;;11.28;39.33
55755;BME280;41674;52.290;-1.474;2023-04-04T11:31:31;102175.54;;;11.00;40.41
55755;BME280;41674;52.290;-1.474;2023-04-04T11:33:59;102176.41;;;11.36;37.69
55755;BME280;41674;52.290;-1.474;2023-04-04T11:38:57;102170.28;;;11.40;36.25
55755;BME280;41674;52.290;-1.474;2023-04-04T11:43:54;102160.65;;;12.40;38.79
55755;BME280;41674;52.290;-1.474;2023-04-04T11:46:28;102155.52;;;12.52;35.84
55755;BME280;41674;52.290;-1.474;2023-04-04T11:48:53;102156.11;;;12.71;39.02
55755;BME280;41674;52.290;-1.474;2023-04-04T11:51:24;102153.79;;;12.99;35.34
55755;BME280;41674;52.290;-1.474;2023-04-04T11:53:52;102150.37;;;13.21;33.80
55755;BME280;41674;52.290;-1.474;2023-04-04T11:56:22;102152.11;;;11.94;34.63
55755;BME280;41674;52.290;-1.474;2023-04-04T11:58:52;102151.88;;;12.32;33.99
55755;BME280;41674;52.290;-1.474;2023-04-04T12:01:21;102151.95;;;12.79;34.28
55755;BME280;41674;52.290;-1.474;2023-04-04T12:03:50;102145.86;;;12.66;37.86
55755;BME280;41674;52.290;-1.474;2023-04-04T12:06:19;102140.36;;;13.83;34.85
55755;BME280;41674;52.290;-1.474;2023-04-04T12:08:49;102133.04;;;13.89;33.46
55755;BME280;41674;52.290;-1.474;2023-04-04T12:11:18;102131.36;;;14.68;33.94
55755;BME280;41674;52.290;-1.474;2023-04-04T12:13:50;102130.83;;;15.31;34.64
55755;BME280;41674;52.290;-1.474;2023-04-04T12:16:18;102128.42;;;15.37;31.42
55755;BME280;41674;52.290;-1.474;2023-04-04T12:18:48;102126.03;;;15.05;32.14
55755;BME280;41674;52.290;-1.474;2023-04-04T12:21:16;102114.43;;;16.01;32.44
55755;BME280;41674;52.290;-1.474;2023-04-04T12:23:47;102111.09;;;15.44;28.71
55755;BME280;41674;52.290;-1.474;2023-04-04T12:26:16;102110.75;;;15.17;32.16
55755;BME280;41674;52.290;-1.474;2023-04-04T12:28:45;102110.92;;;13.99;30.72
55755;BME280;41674;52.290;-1.474;2023-04-04T12:31:15;102107.53;;;14.74;33.20
55755;BME280;41674;52.290;-1.474;2023-04-04T12:33:44;102101.83;;;14.94;36.69
55755;BME280;41674;52.290;-1.474;2023-04-04T12:36:13;102103.34;;;14.71;30.20
55755;BME280;41674;52.290;-1.474;2023-04-04T12:38:55;102093.27;;;15.90;29.42
55755;BME280;41674;52.290;-1.474;2023-04-04T12:43:42;102089.25;;;16.65;30.65
55755;BME280;41674;52.290;-1.474;2023-04-04T12:46:12;102084.63;;;16.56;30.50
55755;BME280;41674;52.290;-1.474;2023-04-04T12:48:41;102080.18;;;16.89;31.16
55755;BME280;41674;52.290;-1.474;2023-04-04T12:51:11;102075.40;;;15.98;29.84
55755;BME280;41674;52.290;-1.474;2023-04-04T12:53:50;102072.28;;;16.59;27.96
55755;BME280;41674;52.290;-1.474;2023-04-04T12:56:10;102065.29;;;17.19;28.83
55755;BME280;41674;52.290;-1.474;2023-04-04T12:58:39;102061.57;;;17.09;28.64
55755;BME280;41674;52.290;-1.474;2023-04-04T13:01:09;102054.32;;;18.52;26.89
55755;BME280;41674;52.290;-1.474;2023-04-04T13:03:38;102048.31;;;17.98;26.79
55755;BME280;41674;52.290;-1.474;2023-04-04T13:06:12;102049.24;;;17.51;29.11
55755;BME280;41674;52.290;-1.474;2023-04-04T13:08:48;102039.96;;;18.06;30.05
55755;BME280;41674;52.290;-1.474;2023-04-04T13:11:07;102038.26;;;19.48;26.81
55755;BME280;41674;52.290;-1.474;2023-04-04T13:13:39;102036.96;;;19.02;27.06
55755;BME280;41674;52.290;-1.474;2023-04-04T13:16:07;102037.00;;;19.08;28.01
55755;BME280;41674;52.290;-1.474;2023-04-04T13:18:38;102035.20;;;18.25;28.80
55755;BME280;41674;52.290;-1.474;2023-04-04T13:21:06;102030.59;;;18.72;25.52